Time;durP1;ratioP1;P1;durP2;ratioP2;P2;SDS_P1;SDS_P2;PMS_P1;PMS_P2;Temp;Humidity;BMP_temperature;BMP_pressure;BME280_temperature;BME280_humidity;BME280_pressure;Samples;Min_cycle;Max_cycle;Signal;HPM_P1;HPM_P2
2022/12/17 13:09:31;;;;;;;46.87;31.17;;;;;2.00;99906.00;;;;16680003;28;20216;-47
2022/12/17 13:17:36;;;;;;;50.87;31.53;;;;;1.80;99904.00;;;;16699492;28;20243;-47
2022/12/17 13:25:40;;;;;;;53.20;31.93;;;;;2.10;99892.00;;;;16700588;28;20237;-48
2022/12/17 13:33:48;;;;;;;51.30;30.47;;;;;2.20;99901.00;;;;16689929;28;20691;-48
2022/12/17 13:41:55;;;;;;;48.90;31.60;;;;;2.20;99902.00;;;;16683761;28;20306;-47
2022/12/17 13:50:02;;;;;;;60.23;38.73;;;;;1.80;99893.00;;;;16699889;28;20622;-48
2022/12/17 13:58:06;;;;;;;57.93;31.53;;;;;1.90;99902.00;;;;16693206;28;20817;-48
2022/12/17 14:06:10;;;;;;;47.70;31.17;;;;;2.10;99903.00;;;;16660850;28;20862;-47
2022/12/17 14:14:20;;;;;;;62.93;37.30;;;;;2.10;99919.00;;;;16664061;28;20236;-46
2022/12/17 14:22:30;;;;;;;45.10;31.70;;;;;-0.40;99964.00;;;;16659056;28;20224;-47
2022/12/17 14:30:38;;;;;;;63.07;36.17;;;;;-0.90;99976.00;;;;16659499;28;20572;-46
2022/12/17 14:38:40;;;;;;;62.67;37.53;;;;;-1.30;99978.00;;;;16662340;28;20229;-47
2022/12/17 14:46:44;;;;;;;57.93;32.97;;;;;-1.00;99983.00;;;;16667209;28;20734;-48
2022/12/17 14:54:47;;;;;;;63.07;35.17;;;;;-1.00;99979.00;;;;16660421;28;20234;-47
2022/12/17 15:02:54;;;;;;;60.60;35.23;;;;;0.10;99969.00;;;;16668659;28;20236;-47
2022/12/17 15:10:56;;;;;;;58.23;35.67;;;;;0.10;99969.00;;;;16671471;28;20261;-48
2022/12/17 15:19:00;;;;;;;60.23;35.03;;;;;0.10;99975.00;;;;16651943;28;20232;-46
2022/12/17 15:27:03;;;;;;;67.20;37.40;;;;;0.00;99974.00;;;;16641971;28;20371;-47
2022/12/17 15:35:08;;;;;;;66.93;37.47;;;;;0.00;99976.00;;;;16626500;28;20235;-46
2022/12/17 15:43:11;;;;;;;59.17;35.20;;;;;0.10;99989.00;;;;16630092;28;20266;-47
2022/12/17 15:51:16;;;;;;;61.87;37.87;;;;;-0.10;99993.00;;;;16617246;28;20216;-47
2022/12/17 15:59:19;;;;;;;67.60;40.63;;;;;-0.10;100003.00;;;;16628663;28;20236;-46
2022/12/17 16:07:23;;;;;;;68.67;41.87;;;;;-0.30;100015.00;;;;16637158;28;20260;-47
2022/12/17 16:15:26;;;;;;;86.50;48.77;;;;;-0.40;100025.00;;;;16642902;28;20246;-47
2022/12/17 16:23:30;;;;;;;71.47;40.80;;;;;-0.60;100030.00;;;;16630755;28;20660;-48
2022/12/17 16:31:32;;;;;;;58.13;34.80;;;;;-0.80;100031.00;;;;16614078;28;20283;-48
2022/12/17 16:39:36;;;;;;;54.23;32.90;;;;;-2.20;100064.00;;;;16637611;28;20230;-47
2022/12/17 16:47:39;;;;;;;71.33;37.77;;;;;-1.10;100043.00;;;;16626022;28;20576;-47
2022/12/17 16:55:44;;;;;;;58.23;33.43;;;;;-1.40;100050.00;;;;16616464;28;20238;-47
2022/12/17 17:03:46;;;;;;;64.30;34.60;;;;;-0.80;100045.00;;;;16606076;28;20225;-46
2022/12/17 17:11:51;;;;;;;60.63;35.30;;;;;-1.50;100065.00;;;;16636728;28;20213;-46
2022/12/17 17:19:53;;;;;;;124.80;51.40;;;;;-0.90;100053.00;;;;16613428;28;20232;-47
2022/12/17 17:27:57;;;;;;;68.67;38.77;;;;;-0.90;100056.00;;;;16603913;28;20193;-48
2022/12/17 17:36:04;;;;;;;62.67;35.90;;;;;-1.50;100076.00;;;;16643772;28;20596;-47
2022/12/17 17:44:10;;;;;;;82.83;45.17;;;;;-1.00;100068.00;;;;16636374;28;20222;-47
2022/12/17 17:52:13;;;;;;;74.07;36.70;;;;;-0.60;100068.00;;;;16604445;28;20310;-46
2022/12/17 18:00:17;;;;;;;64.33;37.20;;;;;-0.50;100077.00;;;;16620976;28;20230;-48
2022/12/17 18:08:21;;;;;;;64.27;33.17;;;;;-0.40;100075.00;;;;16618758;28;20200;-47
2022/12/17 18:16:27;;;;;;;64.63;35.97;;;;;-0.40;100079.00;;;;16641261;28;20230;-47
2022/12/17 18:24:29;;;;;;;84.70;46.67;;;;;-0.40;100083.00;;;;16632414;28;20673;-46
2022/12/17 18:32:33;;;;;;;70.53;39.90;;;;;-0.40;100073.00;;;;16657344;28;20228;-47
2022/12/17 18:40:36;;;;;;;60.40;37.10;;;;;-1.80;100097.00;;;;16631938;28;20235;-46
2022/12/17 18:48:39;;;;;;;55.27;31.97;;;;;-2.80;100128.00;;;;16597068;28;20196;-46
2022/12/17 18:56:42;;;;;;;55.83;30.80;;;;;-3.00;100143.00;;;;16613242;28;20234;-48
2022/12/17 19:04:46;;;;;;;57.55;30.85;;;;;-3.40;100167.00;;;;16653672;28;20222;-46
2022/12/17 19:12:48;;;;;;;57.60;31.90;;;;;-3.90;100185.00;;;;16629378;28;20248;-46
2022/12/17 19:20:58;;;;;;;56.53;34.63;;;;;-3.70;100164.00;;;;16620793;28;20471;-46
2022/12/17 19:29:01;;;;;;;45.47;27.07;;;;;-3.70;100177.00;;;;16636626;28;20222;-46
2022/12/17 19:37:05;;;;;;;54.90;30.77;;;;;-4.10;100215.00;;;;16626882;28;20231;-45
2022/12/17 19:45:08;;;;;;;53.90;31.73;;;;;-4.20;100217.00;;;;16626022;28;20261;-47
2022/12/17 19:53:12;;;;;;;45.60;27.20;;;;;-4.10;100225.00;;;;16610621;28;20223;-46
2022/12/17 20:01:16;;;;;;;48.17;26.20;;;;;-4.10;100216.00;;;;16714222;22;20225;-49
2022/12/17 20:09:20;;;;;;;59.60;29.90;;;;;-4.40;100217.00;;;;16731149;28;20444;-49
2022/12/17 20:17:24;;;;;;;44.73;23.77;;;;;-4.40;100224.00;;;;16743873;28;20224;-51
2022/12/17 20:25:28;;;;;;;54.97;30.37;;;;;-4.20;100211.00;;;;16739364;28;20194;-50
2022/12/17 20:33:31;;;;;;;46.47;27.40;;;;;-4.50;100212.00;;;;16766365;28;20224;-48
2022/12/17 20:41:36;;;;;;;59.07;29.90;;;;;-4.30;100200.00;;;;16784469;28;20214;-48
2022/12/17 20:49:38;;;;;;;50.50;29.63;;;;;-4.20;100197.00;;;;16813575;28;20706;-49
2022/12/17 20:57:42;;;;;;;57.00;27.33;;;;;-4.40;100197.00;;;;16807306;28;20234;-49
2022/12/17 21:05:44;;;;;;;47.63;27.90;;;;;-4.50;100235.00;;;;16802903;28;20196;-47
2022/12/17 21:13:48;;;;;;;64.90;34.93;;;;;-4.20;100213.00;;;;16776935;28;20233;-49
2022/12/17 21:21:51;;;;;;;65.07;34.97;;;;;-2.90;100173.00;;;;16811008;28;20855;-48
2022/12/17 21:29:55;;;;;;;62.80;32.90;;;;;-4.20;100207.00;;;;16818857;28;20212;-48
2022/12/17 21:37:58;;;;;;;63.43;30.73;;;;;-4.10;100208.00;;;;16808085;28;20268;-48
2022/12/17 21:46:02;;;;;;;58.93;29.30;;;;;-4.50;100231.00;;;;16821079;28;20203;-49
2022/12/17 21:54:05;;;;;;;50.30;27.33;;;;;-4.70;100234.00;;;;16828738;28;20220;-48
2022/12/17 22:02:11;;;;;;;45.73;25.00;;;;;-4.60;100231.00;;;;16796553;28;20597;-47
2022/12/17 22:10:14;;;;;;;50.20;26.87;;;;;-4.60;100241.00;;;;16739337;28;20222;-49
2022/12/17 22:18:18;;;;;;;57.97;33.10;;;;;-4.70;100251.00;;;;16785820;28;20221;-47
2022/12/17 22:26:21;;;;;;;49.97;26.30;;;;;-4.80;100254.00;;;;16803268;28;20591;-48
2022/12/17 22:34:25;;;;;;;54.10;27.57;;;;;-4.90;100237.00;;;;16779115;28;20711;-51
2022/12/17 22:50:49;;;;;;;49.43;25.63;;;;;-5.00;100250.00;;;;16779213;28;20773;-50
2022/12/17 22:58:51;;;;;;;57.33;32.30;;;;;-4.70;100245.00;;;;16800539;28;20229;-49
2022/12/17 23:06:55;;;;;;;54.07;30.60;;;;;-5.10;100242.00;;;;16816627;28;20697;-48
2022/12/17 23:14:58;;;;;;;54.40;29.67;;;;;-5.00;100245.00;;;;16807042;28;20304;-47
2022/12/17 23:23:02;;;;;;;53.17;27.27;;;;;-4.80;100245.00;;;;16817713;28;20300;-48
2022/12/17 23:31:09;;;;;;;54.53;29.87;;;;;-4.80;100258.00;;;;16781860;28;20216;-47
2022/12/17 23:39:13;;;;;;;48.37;28.90;;;;;-4.50;100244.00;;;;16757365;28;20221;-45
2022/12/17 23:47:15;;;;;;;49.17;24.47;;;;;-5.40;100263.00;;;;16746464;28;20754;-46
2022/12/17 23:55:19;;;;;;;55.93;28.53;;;;;-4.80;100254.00;;;;16749505;28;20288;-48
